createdAt,value
2022-10-23T00:02:20.373Z,18.85
2022-10-23T00:05:23.361Z,20.07
2022-10-23T00:08:25.804Z,22.15
2022-10-23T00:11:34.206Z,25.27
2022-10-23T00:14:36.724Z,19.73
2022-10-23T00:17:39.339Z,17.58
2022-10-23T00:20:41.836Z,17.30
2022-10-23T00:23:44.763Z,17.38
2022-10-23T00:26:50.457Z,18.55
2022-10-23T00:29:52.994Z,18.60
2022-10-23T00:32:55.331Z,18.45
2022-10-23T00:35:57.720Z,19.97
2022-10-23T00:39:00.206Z,21.17
2022-10-23T00:42:02.554Z,19.98
2022-10-23T00:45:09.984Z,22.50
2022-10-23T00:48:12.944Z,21.95
2022-10-23T00:51:15.668Z,21.90
2022-10-23T00:54:24.336Z,21.90
2022-10-23T01:00:47.112Z,19.95
2022-10-23T01:03:50.043Z,19.48
2022-10-23T01:06:55.483Z,20.67
2022-10-23T01:09:57.839Z,19.40
2022-10-23T01:13:12.878Z,21.48
2022-10-23T01:16:28.876Z,22.67
2022-10-23T01:19:47.878Z,21.15
2022-10-23T01:23:12.151Z,20.80
2022-10-23T01:26:46.487Z,22.48
2022-10-23T01:30:12.244Z,18.35
2022-10-23T01:33:25.290Z,19.63
2022-10-23T01:36:29.443Z,18.92
2022-10-23T01:39:40.248Z,21.20
2022-10-23T01:42:47.590Z,20.13
2022-10-23T01:45:53.344Z,20.42
2022-10-23T01:48:59.042Z,21.25
2022-10-23T01:52:06.627Z,23.05
2022-10-23T01:55:11.189Z,22.67
2022-10-23T01:58:15.586Z,23.27
2022-10-23T02:01:20.401Z,24.00
2022-10-23T02:04:51.073Z,24.33
2022-10-23T02:07:54.985Z,24.05
2022-10-23T02:11:05.716Z,22.03
2022-10-23T02:14:25.408Z,22.90
2022-10-23T02:17:57.528Z,22.92
2022-10-23T02:21:17.724Z,22.85
2022-10-23T02:24:32.063Z,22.00
2022-10-23T02:27:44.269Z,23.20
2022-10-23T02:30:49.251Z,24.20
2022-10-23T02:33:51.739Z,24.25
2022-10-23T02:36:54.458Z,23.10
2022-10-23T02:39:57.914Z,23.55
2022-10-23T02:43:14.481Z,23.83
2022-10-23T02:46:30.201Z,25.42
2022-10-23T02:49:54.114Z,23.55
2022-10-23T02:53:12.322Z,23.83
2022-10-23T02:56:37.965Z,25.98
2022-10-23T02:59:47.569Z,27.03
2022-10-23T03:02:57.764Z,27.85
2022-10-23T03:06:02.954Z,28.75
2022-10-23T03:09:08.574Z,28.70
2022-10-23T03:12:10.982Z,28.05
2022-10-23T03:15:13.386Z,27.00
2022-10-23T03:18:16.253Z,27.23
2022-10-23T03:21:26.642Z,27.27
2022-10-23T03:24:29.792Z,29.83
2022-10-23T03:27:32.794Z,28.48
2022-10-23T03:30:40.020Z,27.03
2022-10-23T03:33:42.442Z,29.60
2022-10-23T03:36:47.188Z,28.33
2022-10-23T03:39:50.331Z,32.22
2022-10-23T03:42:52.813Z,31.55
2022-10-23T03:45:58.757Z,32.83
2022-10-23T03:49:01.858Z,32.88
2022-10-23T03:52:04.812Z,29.90
2022-10-23T03:55:07.885Z,32.00
2022-10-23T03:58:12.254Z,30.73
2022-10-23T04:01:15.235Z,30.30
2022-10-23T04:04:17.683Z,28.98
2022-10-23T04:07:20.068Z,28.52
2022-10-23T04:10:25.238Z,27.70
2022-10-23T04:13:27.653Z,28.55
2022-10-23T04:16:30.093Z,25.97
2022-10-23T04:19:32.476Z,28.63
2022-10-23T04:22:34.888Z,37.08
2022-10-23T04:25:37.268Z,31.48
2022-10-23T04:28:40.616Z,29.02
2022-10-23T04:31:43.236Z,24.87
2022-10-23T04:34:45.562Z,27.77
2022-10-23T04:37:48.452Z,27.77
2022-10-23T04:40:50.821Z,29.60
2022-10-23T04:43:56.877Z,28.50
2022-10-23T04:46:59.226Z,44.50
2022-10-23T04:50:01.778Z,57.08
2022-10-23T04:53:23.830Z,42.72
2022-10-23T04:56:44.698Z,40.83
2022-10-23T04:59:53.317Z,38.08
2022-10-23T05:02:55.713Z,36.90
2022-10-23T05:05:58.700Z,36.05
2022-10-23T05:09:19.673Z,36.35
2022-10-23T05:12:39.268Z,33.90
2022-10-23T05:18:48.999Z,30.73
2022-10-23T05:21:55.818Z,37.97
2022-10-23T05:25:03.219Z,36.53
2022-10-23T05:28:07.938Z,36.20
2022-10-23T05:31:10.860Z,39.58
2022-10-23T05:34:17.233Z,41.63
2022-10-23T05:37:20.352Z,44.88
2022-10-23T05:40:23.927Z,50.30
2022-10-23T05:43:31.679Z,53.50
2022-10-23T05:46:58.214Z,66.47
2022-10-23T05:50:31.476Z,56.83
2022-10-23T05:53:56.011Z,54.92
2022-10-23T05:57:33.366Z,51.70
2022-10-23T06:00:39.894Z,42.85
2022-10-23T06:04:02.961Z,38.30
2022-10-23T06:07:31.277Z,36.83
2022-10-23T06:10:38.853Z,43.70
2022-10-23T06:13:44.184Z,31.98
2022-10-23T06:16:46.827Z,40.85
2022-10-23T06:19:50.704Z,32.60
2022-10-23T06:22:54.135Z,34.73
2022-10-23T06:26:18.219Z,29.48
2022-10-23T06:29:34.489Z,36.53
2022-10-23T06:32:38.214Z,30.50
2022-10-23T06:35:47.864Z,32.88
2022-10-23T06:38:51.898Z,36.13
2022-10-23T06:41:55.848Z,39.92
2022-10-23T06:45:17.104Z,39.17
2022-10-23T06:48:38.041Z,39.80
2022-10-23T06:51:46.740Z,29.05
2022-10-23T06:54:50.712Z,25.37
2022-10-23T06:57:56.843Z,22.38
2022-10-23T07:01:05.093Z,23.08
2022-10-23T07:04:07.569Z,22.73
2022-10-23T07:07:09.949Z,23.40
2022-10-23T07:10:20.160Z,22.57
2022-10-23T07:13:28.220Z,25.40
2022-10-23T07:16:40.098Z,22.70
2022-10-23T07:19:48.416Z,26.65
2022-10-23T07:22:56.044Z,28.42
2022-10-23T07:26:15.459Z,30.30
2022-10-23T07:29:18.087Z,26.92
2022-10-23T07:32:20.466Z,26.95
2022-10-23T07:35:43.192Z,27.83
2022-10-23T07:38:50.785Z,24.75
2022-10-23T07:41:53.200Z,29.87
2022-10-23T07:44:55.548Z,25.27
2022-10-23T07:47:59.158Z,24.73
2022-10-23T07:51:13.140Z,28.05
2022-10-23T07:54:21.341Z,26.25
2022-10-23T07:57:32.816Z,25.83
2022-10-23T08:00:52.056Z,21.50
2022-10-23T08:04:02.029Z,20.83
2022-10-23T08:07:05.870Z,19.42
2022-10-23T08:10:14.052Z,19.85
2022-10-23T08:13:20.419Z,18.53
2022-10-23T08:16:32.933Z,19.50
2022-10-23T08:20:10.553Z,20.48
2022-10-23T08:23:18.819Z,16.15
2022-10-23T08:26:21.427Z,17.45
2022-10-23T08:29:23.789Z,17.00
2022-10-23T08:32:30.894Z,16.80
2022-10-23T08:35:37.507Z,18.33
2022-10-23T08:38:42.196Z,16.70
2022-10-23T08:41:50.710Z,16.83
2022-10-23T08:45:27.085Z,18.07
2022-10-23T08:48:45.367Z,18.02
2022-10-23T08:52:22.285Z,17.98
2022-10-23T08:55:30.247Z,19.02
2022-10-23T08:58:47.087Z,17.83
2022-10-23T09:01:52.850Z,18.17
2022-10-23T09:04:57.544Z,19.23
2022-10-23T09:08:37.991Z,20.85
2022-10-23T09:11:59.771Z,21.77
2022-10-23T09:15:25.128Z,19.60
2022-10-23T09:18:27.516Z,17.30
2022-10-23T09:21:31.163Z,16.58
2022-10-23T09:24:34.175Z,16.05
2022-10-23T09:27:37.708Z,16.08
2022-10-23T09:30:42.609Z,18.25
2022-10-23T09:34:02.992Z,15.97
2022-10-23T09:37:27.453Z,16.52
2022-10-23T09:40:42.856Z,16.35
2022-10-23T09:43:46.042Z,16.88
2022-10-23T09:49:57.299Z,18.13
2022-10-23T09:53:01.155Z,19.40
2022-10-23T09:56:07.861Z,19.38
2022-10-23T09:59:13.283Z,20.52
2022-10-23T10:02:32.354Z,17.90
2022-10-23T10:05:57.234Z,15.83
2022-10-23T10:09:28.445Z,19.17
2022-10-23T10:12:40.042Z,19.67
2022-10-23T10:15:49.066Z,19.58
2022-10-23T10:19:07.409Z,20.02
2022-10-23T10:22:33.961Z,20.10
2022-10-23T10:26:01.653Z,17.42
2022-10-23T10:29:15.935Z,20.15
2022-10-23T10:33:12.544Z,16.35
2022-10-23T10:36:29.854Z,16.27
2022-10-23T10:39:40.552Z,19.17
2022-10-23T10:42:55.569Z,17.58
2022-10-23T10:46:34.452Z,18.73
2022-10-23T10:49:59.360Z,19.90
2022-10-23T10:53:48.893Z,21.73
2022-10-23T10:56:51.373Z,26.57
2022-10-23T10:59:56.069Z,26.35
2022-10-23T11:03:09.864Z,26.48
2022-10-23T11:06:24.799Z,28.00
2022-10-23T11:09:28.971Z,23.42
2022-10-23T11:12:34.417Z,24.93
2022-10-23T11:15:43.121Z,20.52
2022-10-23T11:18:53.428Z,21.15
2022-10-23T11:21:59.865Z,21.45
2022-10-23T11:25:36.762Z,19.00
2022-10-23T11:29:05.604Z,18.23
2022-10-23T11:32:23.592Z,15.80
2022-10-23T11:35:43.632Z,16.42
2022-10-23T11:38:48.200Z,15.98
2022-10-23T11:41:59.533Z,16.83
2022-10-23T11:45:01.934Z,15.67
2022-10-23T11:48:14.432Z,19.08
2022-10-23T11:51:28.077Z,16.05
2022-10-23T11:54:30.931Z,15.85
2022-10-23T11:57:33.496Z,17.95
2022-10-23T12:00:40.196Z,15.57
2022-10-23T12:03:55.134Z,14.75
2022-10-23T12:07:00.508Z,16.73
2022-10-23T12:10:17.186Z,15.60
2022-10-23T12:13:51.041Z,15.30
2022-10-23T12:16:53.522Z,17.10
2022-10-23T12:20:11.119Z,17.98
2022-10-23T12:23:47.378Z,18.67
2022-10-23T12:26:56.592Z,15.65
2022-10-23T12:30:17.494Z,16.98
2022-10-23T12:33:30.714Z,15.90
2022-10-23T12:36:51.861Z,17.08
2022-10-23T12:39:59.052Z,15.90
2022-10-23T12:43:01.798Z,16.48
2022-10-23T12:46:27.510Z,16.38
2022-10-23T12:49:33.530Z,15.57
2022-10-23T12:52:39.585Z,16.30
2022-10-23T12:55:48.994Z,15.07
2022-10-23T12:58:54.100Z,15.68
2022-10-23T13:01:56.687Z,15.60
2022-10-23T13:05:01.509Z,16.87
2022-10-23T13:08:04.518Z,15.68
2022-10-23T13:11:20.914Z,15.48
2022-10-23T13:14:38.261Z,14.27
2022-10-23T13:17:59.364Z,13.90
2022-10-23T13:24:19.930Z,13.00
2022-10-23T13:27:33.776Z,15.73
2022-10-23T13:30:39.008Z,15.68
2022-10-23T13:33:46.022Z,15.80
2022-10-23T13:36:53.931Z,13.23
2022-10-23T13:40:10.770Z,13.60
2022-10-23T13:43:16.068Z,14.73
2022-10-23T13:46:22.111Z,16.45
2022-10-23T13:49:25.401Z,15.65
2022-10-23T13:52:28.066Z,17.40
2022-10-23T13:55:31.678Z,16.00
2022-10-23T13:58:34.043Z,17.17
2022-10-23T14:01:36.738Z,16.20
2022-10-23T14:04:39.352Z,17.90
2022-10-23T14:07:41.997Z,13.90
2022-10-23T14:10:45.093Z,17.10
2022-10-23T14:13:48.166Z,15.93
2022-10-23T14:16:52.706Z,14.63
2022-10-23T14:19:55.487Z,14.90
2022-10-23T14:22:57.859Z,16.00
2022-10-23T14:26:04.531Z,14.95
2022-10-23T14:29:09.863Z,15.75
2022-10-23T14:32:16.434Z,17.25
2022-10-23T14:35:18.811Z,19.45
2022-10-23T14:38:21.381Z,15.03
2022-10-23T14:41:25.902Z,15.27
2022-10-23T14:44:29.139Z,17.05
2022-10-23T14:47:31.844Z,18.33
2022-10-23T14:50:36.394Z,15.95
2022-10-23T14:53:38.831Z,16.60
2022-10-23T14:56:41.296Z,19.70
2022-10-23T14:59:44.000Z,18.42
2022-10-23T15:02:46.638Z,17.08
2022-10-23T15:05:50.478Z,17.08
2022-10-23T15:08:55.435Z,16.23
2022-10-23T15:11:58.117Z,17.55
2022-10-23T15:15:01.172Z,20.17
2022-10-23T15:18:04.009Z,19.95
2022-10-23T15:21:07.526Z,20.10
2022-10-23T15:24:09.860Z,20.60
2022-10-23T15:27:13.501Z,19.63
2022-10-23T15:30:17.435Z,17.98
2022-10-23T15:33:20.969Z,18.42
2022-10-23T15:36:24.608Z,19.10
2022-10-23T15:39:33.786Z,17.03
2022-10-23T15:42:36.646Z,16.70
2022-10-23T15:45:41.091Z,16.35
2022-10-23T15:48:44.006Z,17.33
2022-10-23T15:51:46.635Z,18.42
2022-10-23T15:54:49.792Z,17.60
2022-10-23T15:57:52.662Z,19.55
2022-10-23T16:00:56.150Z,17.60
2022-10-23T16:03:59.040Z,17.00
2022-10-23T16:07:01.636Z,18.20
2022-10-23T16:10:04.323Z,19.97
2022-10-23T16:13:08.025Z,20.50
2022-10-23T16:16:12.020Z,20.70
2022-10-23T16:19:14.716Z,20.27
2022-10-23T16:22:17.503Z,20.35
2022-10-23T16:25:21.551Z,19.93
2022-10-23T16:28:24.849Z,18.77
2022-10-23T16:31:27.653Z,17.80
2022-10-23T16:34:30.054Z,19.48
2022-10-23T16:37:33.305Z,19.23
2022-10-23T16:40:41.597Z,18.90
2022-10-23T16:44:02.610Z,18.90
2022-10-23T16:47:31.086Z,17.60
2022-10-23T16:50:33.583Z,17.88
2022-10-23T16:53:36.817Z,18.58
2022-10-23T16:56:39.677Z,20.27
2022-10-23T16:59:42.364Z,20.85
2022-10-23T17:02:47.550Z,19.58
2022-10-23T17:05:51.969Z,19.73
2022-10-23T17:08:55.460Z,19.02
2022-10-23T17:11:59.239Z,18.60
2022-10-23T17:15:01.676Z,20.48
2022-10-23T17:18:06.390Z,19.52
2022-10-23T17:21:10.321Z,20.45
2022-10-23T17:24:13.354Z,19.83
2022-10-23T17:27:16.000Z,19.27
2022-10-23T17:30:18.698Z,18.48
2022-10-23T17:33:21.349Z,18.60
2022-10-23T17:36:26.318Z,20.20
2022-10-23T17:39:29.610Z,18.67
2022-10-23T17:42:32.239Z,19.17
2022-10-23T17:45:36.993Z,18.27
2022-10-23T17:48:43.881Z,18.88
2022-10-23T17:51:46.562Z,19.38
2022-10-23T17:54:52.144Z,19.42
2022-10-23T17:57:54.793Z,20.33
2022-10-23T18:00:57.762Z,20.13
2022-10-23T18:04:02.468Z,23.35
2022-10-23T18:07:05.130Z,20.00
2022-10-23T18:10:08.137Z,22.67
2022-10-23T18:13:10.834Z,24.30
2022-10-23T18:16:14.234Z,21.40
2022-10-23T18:19:18.346Z,18.55
2022-10-23T18:22:21.324Z,20.23
2022-10-23T18:25:23.806Z,21.50
2022-10-23T18:28:27.773Z,21.20
2022-10-23T18:31:31.878Z,23.52
2022-10-23T18:34:35.157Z,17.60
2022-10-23T18:37:41.209Z,19.13
2022-10-23T18:40:44.361Z,18.42
2022-10-23T18:43:48.375Z,18.13
2022-10-23T18:46:51.918Z,19.15
2022-10-23T18:49:55.082Z,19.05
2022-10-23T18:52:58.194Z,20.92
2022-10-23T18:56:00.930Z,20.35
2022-10-23T18:59:05.233Z,18.70
2022-10-23T19:02:09.628Z,19.77
2022-10-23T19:05:12.445Z,20.80
2022-10-23T19:08:15.005Z,20.35
2022-10-23T19:11:19.335Z,21.15
2022-10-23T19:14:22.029Z,21.10
2022-10-23T19:17:32.028Z,19.50
2022-10-23T19:20:34.855Z,21.63
2022-10-23T19:23:38.397Z,21.05
2022-10-23T19:26:42.182Z,21.23
2022-10-23T19:29:47.192Z,20.27
2022-10-23T19:32:50.295Z,20.58
2022-10-23T19:35:52.920Z,19.88
2022-10-23T19:38:55.663Z,20.55
2022-10-23T19:41:58.789Z,22.88
2022-10-23T19:45:01.460Z,21.47
2022-10-23T19:48:04.500Z,21.98
2022-10-23T19:51:07.795Z,22.50
2022-10-23T19:54:10.686Z,22.13
2022-10-23T19:57:15.529Z,21.65
2022-10-23T20:00:19.884Z,21.47
2022-10-23T20:03:22.571Z,21.90
2022-10-23T20:06:28.245Z,21.75
2022-10-23T20:09:31.019Z,21.52
2022-10-23T20:12:35.455Z,20.67
2022-10-23T20:15:38.957Z,18.17
2022-10-23T20:18:41.578Z,18.13
2022-10-23T20:21:47.987Z,20.33
2022-10-23T20:24:51.916Z,20.10
2022-10-23T20:27:54.920Z,19.38
2022-10-23T20:30:57.291Z,19.30
2022-10-23T20:33:59.998Z,19.00
2022-10-23T20:37:02.679Z,18.17
2022-10-23T20:40:05.620Z,17.50
2022-10-23T20:43:08.096Z,19.48
2022-10-23T20:46:11.107Z,18.10
2022-10-23T20:49:14.593Z,17.38
2022-10-23T20:52:16.968Z,18.02
2022-10-23T20:55:20.991Z,19.55
2022-10-23T20:58:23.750Z,20.38
2022-10-23T21:01:26.834Z,19.27
2022-10-23T21:04:30.225Z,18.90
2022-10-23T21:07:32.639Z,20.58
2022-10-23T21:10:35.118Z,21.13
2022-10-23T21:13:37.521Z,20.35
2022-10-23T21:16:41.358Z,19.87
2022-10-23T21:19:43.756Z,19.23
2022-10-23T21:22:46.275Z,20.67
2022-10-23T21:25:49.022Z,19.17
2022-10-23T21:28:56.147Z,20.13
2022-10-23T21:32:09.135Z,20.93
2022-10-23T21:35:11.476Z,20.50
2022-10-23T21:38:13.838Z,20.80
2022-10-23T21:41:21.873Z,21.08
2022-10-23T21:44:24.271Z,22.08
2022-10-23T21:47:26.657Z,21.90
2022-10-23T21:50:29.986Z,21.38
2022-10-23T21:53:33.078Z,21.50
2022-10-23T21:56:42.928Z,20.00
2022-10-23T21:59:46.523Z,20.83
2022-10-23T22:02:49.131Z,21.50
2022-10-23T22:05:51.903Z,22.42
2022-10-23T22:08:56.501Z,23.20
2022-10-23T22:12:00.042Z,22.77
2022-10-23T22:15:02.381Z,21.83
2022-10-23T22:18:05.623Z,22.27
2022-10-23T22:21:11.268Z,20.67
2022-10-23T22:24:13.964Z,21.90
2022-10-23T22:27:17.673Z,22.73
2022-10-23T22:30:20.975Z,21.92
2022-10-23T22:33:23.321Z,20.93
2022-10-23T22:36:26.278Z,20.77
2022-10-23T22:39:28.625Z,21.98
2022-10-23T22:42:31.014Z,21.27
2022-10-23T22:45:33.365Z,21.02
2022-10-23T22:48:36.206Z,21.10
2022-10-23T22:51:39.686Z,20.42
2022-10-23T22:54:42.111Z,20.65
2022-10-23T22:57:44.679Z,19.48
2022-10-23T23:00:48.140Z,19.20
2022-10-23T23:03:51.184Z,19.47
2022-10-23T23:06:53.553Z,19.00
2022-10-23T23:09:55.928Z,20.50
2022-10-23T23:12:58.397Z,20.65
2022-10-23T23:16:02.276Z,19.40
2022-10-23T23:19:05.548Z,19.30
2022-10-23T23:22:08.164Z,20.65
2022-10-23T23:25:10.623Z,19.38
2022-10-23T23:28:14.241Z,19.38
2022-10-23T23:31:22.139Z,20.77
2022-10-23T23:34:24.552Z,17.93
2022-10-23T23:37:26.911Z,18.88
2022-10-23T23:40:29.356Z,19.20
2022-10-23T23:43:32.036Z,18.33
2022-10-23T23:46:34.464Z,18.67
2022-10-23T23:49:36.809Z,16.17
2022-10-23T23:52:39.292Z,16.67
2022-10-23T23:58:44.652Z,17.30
